sensor_id;sensor_type;location;lat;lon;timestamp;P1;durP1;ratioP1;P2;durP2;ratioP2
3975;SDS011;2002;48.812;9.180;2023-02-11T00:01:48;6.90;;;6.30;;
3975;SDS011;2002;48.812;9.180;2023-02-11T00:04:14;7.87;;;7.13;;
3975;SDS011;2002;48.812;9.180;2023-02-11T00:06:40;8.47;;;7.43;;
3975;SDS011;2002;48.812;9.180;2023-02-11T00:09:05;7.53;;;6.80;;
3975;SDS011;2002;48.812;9.180;2023-02-11T00:11:31;6.97;;;6.37;;
3975;SDS011;2002;48.812;9.180;2023-02-11T00:13:58;7.90;;;7.10;;
3975;SDS011;2002;48.812;9.180;2023-02-11T00:16:25;7.20;;;6.50;;
3975;SDS011;2002;48.812;9.180;2023-02-11T00:18:51;6.53;;;6.03;;
3975;SDS011;2002;48.812;9.180;2023-02-11T00:21:19;7.00;;;6.10;;
3975;SDS011;2002;48.812;9.180;2023-02-11T00:23:46;7.30;;;6.70;;
3975;SDS011;2002;48.812;9.180;2023-02-11T00:28:42;7.10;;;6.50;;
3975;SDS011;2002;48.812;9.180;2023-02-11T00:31:08;7.43;;;6.73;;
3975;SDS011;2002;48.812;9.180;2023-02-11T00:33:35;7.30;;;6.70;;
3975;SDS011;2002;48.812;9.180;2023-02-11T00:36:04;7.37;;;6.60;;
3975;SDS011;2002;48.812;9.180;2023-02-11T00:38:31;6.90;;;6.30;;
3975;SDS011;2002;48.812;9.180;2023-02-11T00:40:57;7.57;;;6.80;;
3975;SDS011;2002;48.812;9.180;2023-02-11T00:43:23;6.50;;;5.90;;
3975;SDS011;2002;48.812;9.180;2023-02-11T00:45:49;7.40;;;6.70;;
3975;SDS011;2002;48.812;9.180;2023-02-11T00:48:14;7.73;;;7.03;;
3975;SDS011;2002;48.812;9.180;2023-02-11T00:50:40;7.73;;;7.03;;
3975;SDS011;2002;48.812;9.180;2023-02-11T00:53:06;7.77;;;7.07;;
3975;SDS011;2002;48.812;9.180;2023-02-11T00:55:31;6.70;;;6.10;;
3975;SDS011;2002;48.812;9.180;2023-02-11T00:57:57;8.03;;;7.30;;
3975;SDS011;2002;48.812;9.180;2023-02-11T01:00:24;7.57;;;6.80;;
3975;SDS011;2002;48.812;9.180;2023-02-11T01:02:50;7.70;;;7.00;;
3975;SDS011;2002;48.812;9.180;2023-02-11T01:05:16;7.17;;;6.57;;
3975;SDS011;2002;48.812;9.180;2023-02-11T01:07:42;6.53;;;6.03;;
3975;SDS011;2002;48.812;9.180;2023-02-11T01:10:07;8.00;;;7.23;;
3975;SDS011;2002;48.812;9.180;2023-02-11T01:12:33;6.80;;;6.20;;
3975;SDS011;2002;48.812;9.180;2023-02-11T01:14:59;7.47;;;6.77;;
3975;SDS011;2002;48.812;9.180;2023-02-11T01:17:24;7.37;;;6.67;;
3975;SDS011;2002;48.812;9.180;2023-02-11T01:19:50;6.80;;;6.20;;
3975;SDS011;2002;48.812;9.180;2023-02-11T01:22:15;10.93;;;6.70;;
3975;SDS011;2002;48.812;9.180;2023-02-11T01:24:42;6.57;;;6.03;;
3975;SDS011;2002;48.812;9.180;2023-02-11T01:27:07;7.93;;;7.13;;
3975;SDS011;2002;48.812;9.180;2023-02-11T01:29:33;6.40;;;5.80;;
3975;SDS011;2002;48.812;9.180;2023-02-11T01:31:59;7.30;;;6.60;;
3975;SDS011;2002;48.812;9.180;2023-02-11T01:34:25;7.73;;;6.80;;
3975;SDS011;2002;48.812;9.180;2023-02-11T01:36:50;6.80;;;6.20;;
3975;SDS011;2002;48.812;9.180;2023-02-11T01:39:21;7.90;;;7.10;;
3975;SDS011;2002;48.812;9.180;2023-02-11T01:41:47;7.13;;;6.57;;
3975;SDS011;2002;48.812;9.180;2023-02-11T01:44:22;7.60;;;6.90;;
3975;SDS011;2002;48.812;9.180;2023-02-11T01:46:50;7.50;;;6.80;;
3975;SDS011;2002;48.812;9.180;2023-02-11T01:49:26;8.57;;;7.77;;
3975;SDS011;2002;48.812;9.180;2023-02-11T01:52:02;7.63;;;6.80;;
3975;SDS011;2002;48.812;9.180;2023-02-11T01:54:37;8.10;;;7.40;;
3975;SDS011;2002;48.812;9.180;2023-02-11T01:57:26;7.03;;;6.33;;
3975;SDS011;2002;48.812;9.180;2023-02-11T02:02:31;7.00;;;6.30;;
3975;SDS011;2002;48.812;9.180;2023-02-11T02:08:15;7.60;;;6.90;;
3975;SDS011;2002;48.812;9.180;2023-02-11T02:10:51;8.07;;;7.37;;
3975;SDS011;2002;48.812;9.180;2023-02-11T02:13:20;10.13;;;6.90;;
3975;SDS011;2002;48.812;9.180;2023-02-11T02:15:51;6.80;;;6.30;;
3975;SDS011;2002;48.812;9.180;2023-02-11T02:26:37;7.87;;;7.00;;
3975;SDS011;2002;48.812;9.180;2023-02-11T02:34:36;7.00;;;6.40;;
3975;SDS011;2002;48.812;9.180;2023-02-11T02:37:24;7.40;;;6.80;;
3975;SDS011;2002;48.812;9.180;2023-02-11T02:39:55;8.30;;;7.53;;
3975;SDS011;2002;48.812;9.180;2023-02-11T02:42:23;7.47;;;6.77;;
3975;SDS011;2002;48.812;9.180;2023-02-11T02:44:50;8.77;;;7.70;;
3975;SDS011;2002;48.812;9.180;2023-02-11T02:47:17;9.00;;;8.10;;
3975;SDS011;2002;48.812;9.180;2023-02-11T02:49:43;7.87;;;7.07;;
3975;SDS011;2002;48.812;9.180;2023-02-11T03:08:28;8.67;;;7.87;;
3975;SDS011;2002;48.812;9.180;2023-02-11T03:11:00;7.63;;;6.83;;
3975;SDS011;2002;48.812;9.180;2023-02-11T03:13:28;8.07;;;7.27;;
3975;SDS011;2002;48.812;9.180;2023-02-11T03:15:58;7.73;;;7.03;;
3975;SDS011;2002;48.812;9.180;2023-02-11T03:18:29;9.40;;;8.53;;
3975;SDS011;2002;48.812;9.180;2023-02-11T03:20:57;7.97;;;7.27;;
3975;SDS011;2002;48.812;9.180;2023-02-11T03:26:04;6.90;;;6.20;;
3975;SDS011;2002;48.812;9.180;2023-02-11T03:28:41;7.30;;;6.60;;
3975;SDS011;2002;48.812;9.180;2023-02-11T03:31:27;7.67;;;6.90;;
3975;SDS011;2002;48.812;9.180;2023-02-11T03:34:01;7.73;;;7.03;;
3975;SDS011;2002;48.812;9.180;2023-02-11T03:36:43;7.73;;;6.97;;
3975;SDS011;2002;48.812;9.180;2023-02-11T03:39:29;8.00;;;7.30;;
3975;SDS011;2002;48.812;9.180;2023-02-11T03:42:02;7.83;;;7.10;;
3975;SDS011;2002;48.812;9.180;2023-02-11T03:44:31;8.43;;;7.73;;
3975;SDS011;2002;48.812;9.180;2023-02-11T03:47:01;7.00;;;6.37;;
3975;SDS011;2002;48.812;9.180;2023-02-11T03:49:31;7.10;;;6.33;;
3975;SDS011;2002;48.812;9.180;2023-02-11T03:51:58;7.00;;;6.30;;
3975;SDS011;2002;48.812;9.180;2023-02-11T03:54:28;8.33;;;7.53;;
3975;SDS011;2002;48.812;9.180;2023-02-11T03:56:56;8.00;;;7.20;;
3975;SDS011;2002;48.812;9.180;2023-02-11T03:59:24;8.83;;;6.83;;
3975;SDS011;2002;48.812;9.180;2023-02-11T04:01:50;7.97;;;7.17;;
3975;SDS011;2002;48.812;9.180;2023-02-11T04:04:15;7.70;;;7.00;;
3975;SDS011;2002;48.812;9.180;2023-02-11T04:06:41;7.90;;;7.20;;
3975;SDS011;2002;48.812;9.180;2023-02-11T04:09:07;7.80;;;7.10;;
3975;SDS011;2002;48.812;9.180;2023-02-11T04:11:33;8.00;;;7.23;;
3975;SDS011;2002;48.812;9.180;2023-02-11T04:13:59;7.83;;;7.23;;
3975;SDS011;2002;48.812;9.180;2023-02-11T04:16:24;8.10;;;7.30;;
3975;SDS011;2002;48.812;9.180;2023-02-11T04:18:50;8.70;;;7.77;;
3975;SDS011;2002;48.812;9.180;2023-02-11T04:21:15;7.40;;;6.70;;
3975;SDS011;2002;48.812;9.180;2023-02-11T04:23:41;7.93;;;7.23;;
3975;SDS011;2002;48.812;9.180;2023-02-11T04:26:06;8.00;;;7.20;;
3975;SDS011;2002;48.812;9.180;2023-02-11T04:28:32;7.63;;;6.93;;
3975;SDS011;2002;48.812;9.180;2023-02-11T04:30:58;8.30;;;7.57;;
3975;SDS011;2002;48.812;9.180;2023-02-11T04:33:24;7.17;;;6.53;;
3975;SDS011;2002;48.812;9.180;2023-02-11T04:35:50;8.63;;;7.70;;
3975;SDS011;2002;48.812;9.180;2023-02-11T04:38:15;7.47;;;6.77;;
3975;SDS011;2002;48.812;9.180;2023-02-11T04:40:41;8.83;;;8.10;;
3975;SDS011;2002;48.812;9.180;2023-02-11T04:43:07;7.60;;;7.00;;
3975;SDS011;2002;48.812;9.180;2023-02-11T04:45:33;7.67;;;6.97;;
3975;SDS011;2002;48.812;9.180;2023-02-11T04:48:00;7.30;;;6.70;;
3975;SDS011;2002;48.812;9.180;2023-02-11T04:50:27;7.57;;;6.93;;
3975;SDS011;2002;48.812;9.180;2023-02-11T04:52:52;8.23;;;7.40;;
3975;SDS011;2002;48.812;9.180;2023-02-11T04:55:18;8.43;;;7.70;;
3975;SDS011;2002;48.812;9.180;2023-02-11T04:57:43;8.20;;;7.40;;
3975;SDS011;2002;48.812;9.180;2023-02-11T05:00:09;7.70;;;7.00;;
3975;SDS011;2002;48.812;9.180;2023-02-11T05:02:35;8.70;;;7.73;;
3975;SDS011;2002;48.812;9.180;2023-02-11T05:05:00;7.03;;;6.40;;
3975;SDS011;2002;48.812;9.180;2023-02-11T05:07:26;8.20;;;7.30;;
3975;SDS011;2002;48.812;9.180;2023-02-11T05:09:52;7.60;;;6.80;;
3975;SDS011;2002;48.812;9.180;2023-02-11T05:12:17;8.10;;;7.30;;
3975;SDS011;2002;48.812;9.180;2023-02-11T05:14:43;7.60;;;6.90;;
3975;SDS011;2002;48.812;9.180;2023-02-11T05:17:08;7.30;;;6.60;;
3975;SDS011;2002;48.812;9.180;2023-02-11T05:19:34;7.90;;;7.20;;
3975;SDS011;2002;48.812;9.180;2023-02-11T05:21:59;7.17;;;6.57;;
3975;SDS011;2002;48.812;9.180;2023-02-11T05:24:25;8.30;;;7.40;;
3975;SDS011;2002;48.812;9.180;2023-02-11T05:26:51;8.03;;;7.33;;
3975;SDS011;2002;48.812;9.180;2023-02-11T05:29:16;7.50;;;6.80;;
3975;SDS011;2002;48.812;9.180;2023-02-11T05:31:42;7.47;;;6.80;;
3975;SDS011;2002;48.812;9.180;2023-02-11T05:34:08;7.20;;;6.50;;
3975;SDS011;2002;48.812;9.180;2023-02-11T05:36:33;7.77;;;7.00;;
3975;SDS011;2002;48.812;9.180;2023-02-11T05:38:59;7.97;;;7.23;;
3975;SDS011;2002;48.812;9.180;2023-02-11T05:41:24;9.73;;;8.90;;
3975;SDS011;2002;48.812;9.180;2023-02-11T05:43:50;6.60;;;6.00;;
3975;SDS011;2002;48.812;9.180;2023-02-11T05:46:16;7.40;;;6.80;;
3975;SDS011;2002;48.812;9.180;2023-02-11T05:48:42;7.20;;;6.60;;
3975;SDS011;2002;48.812;9.180;2023-02-11T05:51:08;7.80;;;7.00;;
3975;SDS011;2002;48.812;9.180;2023-02-11T05:53:34;8.27;;;7.50;;
3975;SDS011;2002;48.812;9.180;2023-02-11T05:55:59;7.77;;;7.07;;
3975;SDS011;2002;48.812;9.180;2023-02-11T05:58:26;7.20;;;6.50;;
3975;SDS011;2002;48.812;9.180;2023-02-11T06:00:52;7.80;;;6.77;;
3975;SDS011;2002;48.812;9.180;2023-02-11T06:03:17;7.20;;;6.60;;
3975;SDS011;2002;48.812;9.180;2023-02-11T06:05:43;9.40;;;8.53;;
3975;SDS011;2002;48.812;9.180;2023-02-11T06:08:09;7.70;;;7.00;;
3975;SDS011;2002;48.812;9.180;2023-02-11T06:10:35;8.50;;;7.60;;
3975;SDS011;2002;48.812;9.180;2023-02-11T06:13:01;7.10;;;6.40;;
3975;SDS011;2002;48.812;9.180;2023-02-11T06:15:27;6.33;;;5.73;;
3975;SDS011;2002;48.812;9.180;2023-02-11T06:17:52;7.93;;;7.13;;
3975;SDS011;2002;48.812;9.180;2023-02-11T06:20:18;7.10;;;6.50;;
3975;SDS011;2002;48.812;9.180;2023-02-11T06:22:44;7.50;;;6.80;;
3975;SDS011;2002;48.812;9.180;2023-02-11T06:25:10;7.20;;;6.60;;
3975;SDS011;2002;48.812;9.180;2023-02-11T06:27:36;7.30;;;6.60;;
3975;SDS011;2002;48.812;9.180;2023-02-11T06:30:03;7.50;;;6.87;;
3975;SDS011;2002;48.812;9.180;2023-02-11T06:32:30;7.47;;;6.80;;
3975;SDS011;2002;48.812;9.180;2023-02-11T06:34:55;7.43;;;6.50;;
3975;SDS011;2002;48.812;9.180;2023-02-11T06:37:21;8.37;;;7.63;;
3975;SDS011;2002;48.812;9.180;2023-02-11T06:39:47;8.77;;;7.93;;
3975;SDS011;2002;48.812;9.180;2023-02-11T06:42:12;8.60;;;7.83;;
3975;SDS011;2002;48.812;9.180;2023-02-11T06:44:38;7.67;;;6.90;;
3975;SDS011;2002;48.812;9.180;2023-02-11T06:47:03;7.50;;;6.80;;
3975;SDS011;2002;48.812;9.180;2023-02-11T06:49:29;7.17;;;6.57;;
3975;SDS011;2002;48.812;9.180;2023-02-11T06:51:55;8.03;;;7.33;;
3975;SDS011;2002;48.812;9.180;2023-02-11T06:54:20;7.57;;;6.87;;
3975;SDS011;2002;48.812;9.180;2023-02-11T06:56:46;7.00;;;6.30;;
3975;SDS011;2002;48.812;9.180;2023-02-11T06:59:14;7.20;;;6.50;;
3975;SDS011;2002;48.812;9.180;2023-02-11T07:01:41;7.70;;;7.00;;
3975;SDS011;2002;48.812;9.180;2023-02-11T07:04:07;7.83;;;7.23;;
3975;SDS011;2002;48.812;9.180;2023-02-11T07:06:32;7.80;;;7.10;;
3975;SDS011;2002;48.812;9.180;2023-02-11T07:08:58;6.67;;;6.07;;
3975;SDS011;2002;48.812;9.180;2023-02-11T07:11:25;7.83;;;7.13;;
3975;SDS011;2002;48.812;9.180;2023-02-11T07:13:53;7.20;;;6.60;;
3975;SDS011;2002;48.812;9.180;2023-02-11T07:16:21;7.37;;;6.57;;
3975;SDS011;2002;48.812;9.180;2023-02-11T07:18:47;7.23;;;6.63;;
3975;SDS011;2002;48.812;9.180;2023-02-11T07:21:14;7.60;;;7.00;;
3975;SDS011;2002;48.812;9.180;2023-02-11T07:23:42;6.70;;;6.20;;
3975;SDS011;2002;48.812;9.180;2023-02-11T07:26:09;7.70;;;7.00;;
3975;SDS011;2002;48.812;9.180;2023-02-11T07:28:37;8.00;;;7.20;;
3975;SDS011;2002;48.812;9.180;2023-02-11T07:31:08;7.83;;;7.13;;
3975;SDS011;2002;48.812;9.180;2023-02-11T07:33:35;7.40;;;6.80;;
3975;SDS011;2002;48.812;9.180;2023-02-11T07:36:01;7.77;;;7.07;;
3975;SDS011;2002;48.812;9.180;2023-02-11T07:38:28;8.80;;;8.00;;
3975;SDS011;2002;48.812;9.180;2023-02-11T07:40:58;8.07;;;7.27;;
3975;SDS011;2002;48.812;9.180;2023-02-11T07:43:25;7.60;;;6.90;;
3975;SDS011;2002;48.812;9.180;2023-02-11T07:45:50;7.13;;;6.53;;
3975;SDS011;2002;48.812;9.180;2023-02-11T07:48:16;7.33;;;6.70;;
3975;SDS011;2002;48.812;9.180;2023-02-11T07:50:41;7.03;;;6.33;;
3975;SDS011;2002;48.812;9.180;2023-02-11T07:53:07;7.23;;;6.53;;
3975;SDS011;2002;48.812;9.180;2023-02-11T07:55:32;8.40;;;7.70;;
3975;SDS011;2002;48.812;9.180;2023-02-11T07:57:58;7.37;;;6.70;;
3975;SDS011;2002;48.812;9.180;2023-02-11T08:00:24;7.57;;;6.97;;
3975;SDS011;2002;48.812;9.180;2023-02-11T08:02:49;8.23;;;7.50;;
3975;SDS011;2002;48.812;9.180;2023-02-11T08:05:15;7.60;;;7.00;;
3975;SDS011;2002;48.812;9.180;2023-02-11T08:07:40;7.17;;;6.57;;
3975;SDS011;2002;48.812;9.180;2023-02-11T08:10:06;7.60;;;6.93;;
3975;SDS011;2002;48.812;9.180;2023-02-11T08:12:32;7.07;;;6.40;;
3975;SDS011;2002;48.812;9.180;2023-02-11T08:14:57;8.30;;;7.50;;
3975;SDS011;2002;48.812;9.180;2023-02-11T08:17:23;7.20;;;6.60;;
3975;SDS011;2002;48.812;9.180;2023-02-11T08:19:48;7.27;;;6.67;;
3975;SDS011;2002;48.812;9.180;2023-02-11T08:22:14;7.63;;;6.97;;
3975;SDS011;2002;48.812;9.180;2023-02-11T08:24:39;7.23;;;6.53;;
3975;SDS011;2002;48.812;9.180;2023-02-11T08:27:05;7.50;;;6.77;;
3975;SDS011;2002;48.812;9.180;2023-02-11T08:29:30;7.40;;;6.80;;
3975;SDS011;2002;48.812;9.180;2023-02-11T08:31:56;8.50;;;7.60;;
3975;SDS011;2002;48.812;9.180;2023-02-11T08:34:21;7.17;;;6.50;;
3975;SDS011;2002;48.812;9.180;2023-02-11T08:36:47;7.80;;;7.10;;
3975;SDS011;2002;48.812;9.180;2023-02-11T08:39:15;7.00;;;6.40;;
3975;SDS011;2002;48.812;9.180;2023-02-11T08:41:42;7.60;;;6.80;;
3975;SDS011;2002;48.812;9.180;2023-02-11T08:44:08;7.03;;;6.33;;
3975;SDS011;2002;48.812;9.180;2023-02-11T08:46:34;6.80;;;6.27;;
3975;SDS011;2002;48.812;9.180;2023-02-11T08:49:00;6.70;;;6.10;;
3975;SDS011;2002;48.812;9.180;2023-02-11T08:51:26;8.03;;;7.10;;
3975;SDS011;2002;48.812;9.180;2023-02-11T08:53:54;7.17;;;6.47;;
3975;SDS011;2002;48.812;9.180;2023-02-11T08:56:20;7.23;;;6.53;;
3975;SDS011;2002;48.812;9.180;2023-02-11T08:58:47;7.40;;;6.80;;
3975;SDS011;2002;48.812;9.180;2023-02-11T09:01:14;8.50;;;7.53;;
3975;SDS011;2002;48.812;9.180;2023-02-11T09:03:42;7.93;;;7.23;;
3975;SDS011;2002;48.812;9.180;2023-02-11T09:06:09;7.23;;;6.70;;
3975;SDS011;2002;48.812;9.180;2023-02-11T09:08:36;7.40;;;6.43;;
3975;SDS011;2002;48.812;9.180;2023-02-11T09:11:03;8.83;;;8.07;;
3975;SDS011;2002;48.812;9.180;2023-02-11T09:13:29;8.23;;;7.40;;
3975;SDS011;2002;48.812;9.180;2023-02-11T09:15:56;6.20;;;5.70;;
3975;SDS011;2002;48.812;9.180;2023-02-11T09:18:23;8.27;;;7.57;;
3975;SDS011;2002;48.812;9.180;2023-02-11T09:20:48;7.73;;;6.90;;
3975;SDS011;2002;48.812;9.180;2023-02-11T09:23:14;7.00;;;6.33;;
3975;SDS011;2002;48.812;9.180;2023-02-11T09:25:40;6.23;;;5.73;;
3975;SDS011;2002;48.812;9.180;2023-02-11T09:28:06;7.87;;;7.17;;
3975;SDS011;2002;48.812;9.180;2023-02-11T09:30:33;7.03;;;6.33;;
3975;SDS011;2002;48.812;9.180;2023-02-11T09:33:00;7.60;;;6.90;;
3975;SDS011;2002;48.812;9.180;2023-02-11T09:35:26;7.23;;;6.63;;
3975;SDS011;2002;48.812;9.180;2023-02-11T09:37:51;6.73;;;6.13;;
3975;SDS011;2002;48.812;9.180;2023-02-11T09:40:17;7.30;;;6.70;;
3975;SDS011;2002;48.812;9.180;2023-02-11T09:42:50;7.07;;;6.57;;
3975;SDS011;2002;48.812;9.180;2023-02-11T09:45:25;7.60;;;6.27;;
3975;SDS011;2002;48.812;9.180;2023-02-11T09:47:55;7.87;;;7.17;;
3975;SDS011;2002;48.812;9.180;2023-02-11T09:50:36;7.40;;;6.70;;
3975;SDS011;2002;48.812;9.180;2023-02-11T09:53:05;7.60;;;7.00;;
3975;SDS011;2002;48.812;9.180;2023-02-11T09:55:51;7.50;;;6.87;;
3975;SDS011;2002;48.812;9.180;2023-02-11T09:58:30;6.83;;;6.23;;
3975;SDS011;2002;48.812;9.180;2023-02-11T10:01:05;6.53;;;5.90;;
3975;SDS011;2002;48.812;9.180;2023-02-11T10:06:44;6.37;;;5.77;;
3975;SDS011;2002;48.812;9.180;2023-02-11T10:09:41;6.03;;;5.53;;
3975;SDS011;2002;48.812;9.180;2023-02-11T10:12:30;6.10;;;5.60;;
3975;SDS011;2002;48.812;9.180;2023-02-11T10:15:38;6.50;;;6.00;;
3975;SDS011;2002;48.812;9.180;2023-02-11T10:23:32;8.07;;;6.97;;
3975;SDS011;2002;48.812;9.180;2023-02-11T10:26:01;6.70;;;6.10;;
3975;SDS011;2002;48.812;9.180;2023-02-11T10:28:33;7.10;;;6.40;;
3975;SDS011;2002;48.812;9.180;2023-02-11T10:31:05;6.07;;;5.53;;
3975;SDS011;2002;48.812;9.180;2023-02-11T10:36:00;6.97;;;6.37;;
3975;SDS011;2002;48.812;9.180;2023-02-11T10:38:28;6.50;;;5.90;;
3975;SDS011;2002;48.812;9.180;2023-02-11T10:40:53;6.33;;;5.83;;
3975;SDS011;2002;48.812;9.180;2023-02-11T10:43:20;6.30;;;5.70;;
3975;SDS011;2002;48.812;9.180;2023-02-11T10:45:50;6.10;;;5.50;;
3975;SDS011;2002;48.812;9.180;2023-02-11T10:51:07;5.80;;;5.30;;
3975;SDS011;2002;48.812;9.180;2023-02-11T10:53:36;6.63;;;6.03;;
3975;SDS011;2002;48.812;9.180;2023-02-11T10:56:02;6.40;;;5.80;;
3975;SDS011;2002;48.812;9.180;2023-02-11T11:01:21;6.30;;;5.70;;
3975;SDS011;2002;48.812;9.180;2023-02-11T11:03:50;6.00;;;5.40;;
3975;SDS011;2002;48.812;9.180;2023-02-11T11:06:16;6.13;;;5.63;;
3975;SDS011;2002;48.812;9.180;2023-02-11T11:08:56;6.80;;;6.20;;
3975;SDS011;2002;48.812;9.180;2023-02-11T11:11:22;6.03;;;5.53;;
3975;SDS011;2002;48.812;9.180;2023-02-11T11:16:34;6.33;;;5.80;;
3975;SDS011;2002;48.812;9.180;2023-02-11T11:21:33;6.77;;;5.87;;
3975;SDS011;2002;48.812;9.180;2023-02-11T11:24:18;5.90;;;5.40;;
3975;SDS011;2002;48.812;9.180;2023-02-11T11:26:54;5.27;;;4.77;;
3975;SDS011;2002;48.812;9.180;2023-02-11T11:29:30;5.50;;;5.00;;
3975;SDS011;2002;48.812;9.180;2023-02-11T11:32:04;5.63;;;5.13;;
3975;SDS011;2002;48.812;9.180;2023-02-11T11:34:40;6.10;;;5.50;;
3975;SDS011;2002;48.812;9.180;2023-02-11T11:37:27;7.13;;;6.53;;
3975;SDS011;2002;48.812;9.180;2023-02-11T11:39:56;5.50;;;5.00;;
3975;SDS011;2002;48.812;9.180;2023-02-11T11:42:31;5.57;;;5.07;;
3975;SDS011;2002;48.812;9.180;2023-02-11T11:44:58;6.03;;;5.60;;
3975;SDS011;2002;48.812;9.180;2023-02-11T11:47:28;5.17;;;4.70;;
3975;SDS011;2002;48.812;9.180;2023-02-11T11:58:32;5.67;;;5.10;;
3975;SDS011;2002;48.812;9.180;2023-02-11T12:06:54;5.03;;;4.60;;
3975;SDS011;2002;48.812;9.180;2023-02-11T12:09:26;5.57;;;5.17;;
3975;SDS011;2002;48.812;9.180;2023-02-11T12:16:58;4.57;;;4.27;;
3975;SDS011;2002;48.812;9.180;2023-02-11T12:24:55;5.30;;;4.90;;
3975;SDS011;2002;48.812;9.180;2023-02-11T12:27:40;5.43;;;4.97;;
3975;SDS011;2002;48.812;9.180;2023-02-11T12:38:31;5.10;;;4.67;;
3975;SDS011;2002;48.812;9.180;2023-02-11T12:44:16;4.63;;;4.23;;
3975;SDS011;2002;48.812;9.180;2023-02-11T12:46:57;5.40;;;5.00;;
3975;SDS011;2002;48.812;9.180;2023-02-11T12:49:48;5.07;;;4.67;;
3975;SDS011;2002;48.812;9.180;2023-02-11T12:52:35;5.17;;;4.77;;
3975;SDS011;2002;48.812;9.180;2023-02-11T12:55:17;5.27;;;4.77;;
3975;SDS011;2002;48.812;9.180;2023-02-11T12:57:47;4.90;;;4.50;;
3975;SDS011;2002;48.812;9.180;2023-02-11T13:00:19;6.07;;;5.20;;
3975;SDS011;2002;48.812;9.180;2023-02-11T13:03:11;4.67;;;4.37;;
3975;SDS011;2002;48.812;9.180;2023-02-11T13:10:59;4.63;;;4.23;;
3975;SDS011;2002;48.812;9.180;2023-02-11T13:13:28;5.10;;;4.67;;
3975;SDS011;2002;48.812;9.180;2023-02-11T13:16:00;4.40;;;4.10;;
3975;SDS011;2002;48.812;9.180;2023-02-11T13:18:51;4.70;;;4.17;;
3975;SDS011;2002;48.812;9.180;2023-02-11T13:21:27;5.03;;;4.60;;
3975;SDS011;2002;48.812;9.180;2023-02-11T13:24:24;4.70;;;4.30;;
3975;SDS011;2002;48.812;9.180;2023-02-11T13:27:14;5.40;;;5.00;;
3975;SDS011;2002;48.812;9.180;2023-02-11T13:30:08;4.80;;;4.40;;
3975;SDS011;2002;48.812;9.180;2023-02-11T13:35:28;5.00;;;4.60;;
3975;SDS011;2002;48.812;9.180;2023-02-11T13:37:55;4.73;;;4.37;;
3975;SDS011;2002;48.812;9.180;2023-02-11T13:40:23;4.40;;;4.10;;
3975;SDS011;2002;48.812;9.180;2023-02-11T13:42:51;5.27;;;4.87;;
3975;SDS011;2002;48.812;9.180;2023-02-11T13:47:56;4.13;;;3.83;;
3975;SDS011;2002;48.812;9.180;2023-02-11T13:50:23;4.53;;;4.13;;
3975;SDS011;2002;48.812;9.180;2023-02-11T13:52:57;4.73;;;4.20;;
3975;SDS011;2002;48.812;9.180;2023-02-11T13:55:26;4.77;;;4.37;;
3975;SDS011;2002;48.812;9.180;2023-02-11T14:11:51;5.07;;;4.70;;
3975;SDS011;2002;48.812;9.180;2023-02-11T14:22:17;4.63;;;4.27;;
3975;SDS011;2002;48.812;9.180;2023-02-11T14:38:00;4.20;;;3.90;;
3975;SDS011;2002;48.812;9.180;2023-02-11T14:40:40;4.50;;;4.10;;
3975;SDS011;2002;48.812;9.180;2023-02-11T14:43:19;4.40;;;4.00;;
3975;SDS011;2002;48.812;9.180;2023-02-11T14:45:54;4.10;;;3.77;;
3975;SDS011;2002;48.812;9.180;2023-02-11T14:48:28;4.13;;;3.77;;
3975;SDS011;2002;48.812;9.180;2023-02-11T14:51:02;4.33;;;4.03;;
3975;SDS011;2002;48.812;9.180;2023-02-11T14:53:36;5.17;;;4.67;;
3975;SDS011;2002;48.812;9.180;2023-02-11T14:56:24;4.53;;;4.23;;
3975;SDS011;2002;48.812;9.180;2023-02-11T14:58:52;4.47;;;4.17;;
3975;SDS011;2002;48.812;9.180;2023-02-11T15:03:54;4.03;;;3.73;;
3975;SDS011;2002;48.812;9.180;2023-02-11T15:08:56;4.30;;;3.97;;
3975;SDS011;2002;48.812;9.180;2023-02-11T15:11:25;4.00;;;3.70;;
3975;SDS011;2002;48.812;9.180;2023-02-11T15:13:53;3.60;;;3.30;;
3975;SDS011;2002;48.812;9.180;2023-02-11T15:16:25;4.30;;;3.90;;
3975;SDS011;2002;48.812;9.180;2023-02-11T15:18:55;3.53;;;3.23;;
3975;SDS011;2002;48.812;9.180;2023-02-11T15:21:26;4.40;;;4.00;;
3975;SDS011;2002;48.812;9.180;2023-02-11T15:23:59;3.93;;;3.60;;
3975;SDS011;2002;48.812;9.180;2023-02-11T15:27:21;4.10;;;3.80;;
3975;SDS011;2002;48.812;9.180;2023-02-11T15:29:43;3.97;;;3.57;;
3975;SDS011;2002;48.812;9.180;2023-02-11T15:34:47;4.23;;;3.83;;
3975;SDS011;2002;48.812;9.180;2023-02-11T15:39:43;4.20;;;3.90;;
3975;SDS011;2002;48.812;9.180;2023-02-11T15:45:07;3.80;;;3.50;;
3975;SDS011;2002;48.812;9.180;2023-02-11T15:47:48;3.70;;;3.40;;
3975;SDS011;2002;48.812;9.180;2023-02-11T15:50:25;4.00;;;3.70;;
3975;SDS011;2002;48.812;9.180;2023-02-11T15:52:54;4.30;;;4.00;;
3975;SDS011;2002;48.812;9.180;2023-02-11T15:55:24;4.00;;;3.60;;
3975;SDS011;2002;48.812;9.180;2023-02-11T15:57:59;4.33;;;3.77;;
3975;SDS011;2002;48.812;9.180;2023-02-11T16:00:33;3.70;;;3.43;;
3975;SDS011;2002;48.812;9.180;2023-02-11T16:03:01;4.33;;;4.03;;
3975;SDS011;2002;48.812;9.180;2023-02-11T16:05:34;3.93;;;3.63;;
3975;SDS011;2002;48.812;9.180;2023-02-11T16:08:21;4.43;;;4.03;;
3975;SDS011;2002;48.812;9.180;2023-02-11T16:13:54;5.33;;;3.80;;
3975;SDS011;2002;48.812;9.180;2023-02-11T16:16:21;3.60;;;3.30;;
3975;SDS011;2002;48.812;9.180;2023-02-11T16:18:50;4.60;;;3.93;;
3975;SDS011;2002;48.812;9.180;2023-02-11T16:21:17;3.47;;;3.17;;
3975;SDS011;2002;48.812;9.180;2023-02-11T16:23:49;3.70;;;3.40;;
3975;SDS011;2002;48.812;9.180;2023-02-11T16:26:24;4.13;;;3.83;;
3975;SDS011;2002;48.812;9.180;2023-02-11T16:29:21;3.73;;;3.33;;
3975;SDS011;2002;48.812;9.180;2023-02-11T16:31:48;4.10;;;3.80;;
3975;SDS011;2002;48.812;9.180;2023-02-11T16:36:42;3.97;;;3.60;;
3975;SDS011;2002;48.812;9.180;2023-02-11T16:39:09;4.17;;;3.77;;
3975;SDS011;2002;48.812;9.180;2023-02-11T16:41:34;4.00;;;3.70;;
3975;SDS011;2002;48.812;9.180;2023-02-11T16:44:00;4.80;;;4.50;;
3975;SDS011;2002;48.812;9.180;2023-02-11T16:46:26;3.80;;;3.47;;
3975;SDS011;2002;48.812;9.180;2023-02-11T16:48:52;3.60;;;3.40;;
3975;SDS011;2002;48.812;9.180;2023-02-11T16:51:19;3.57;;;3.27;;
3975;SDS011;2002;48.812;9.180;2023-02-11T16:53:45;3.87;;;3.53;;
3975;SDS011;2002;48.812;9.180;2023-02-11T16:56:14;3.83;;;3.30;;
3975;SDS011;2002;48.812;9.180;2023-02-11T16:58:41;3.93;;;3.63;;
3975;SDS011;2002;48.812;9.180;2023-02-11T17:01:07;3.80;;;3.50;;
3975;SDS011;2002;48.812;9.180;2023-02-11T17:03:34;3.80;;;3.50;;
3975;SDS011;2002;48.812;9.180;2023-02-11T17:06:04;3.80;;;3.50;;
3975;SDS011;2002;48.812;9.180;2023-02-11T17:08:33;3.43;;;3.20;;
3975;SDS011;2002;48.812;9.180;2023-02-11T17:10:59;3.47;;;3.20;;
3975;SDS011;2002;48.812;9.180;2023-02-11T17:13:25;4.10;;;3.80;;
3975;SDS011;2002;48.812;9.180;2023-02-11T17:15:51;3.80;;;3.40;;
3975;SDS011;2002;48.812;9.180;2023-02-11T17:18:16;3.80;;;3.50;;
3975;SDS011;2002;48.812;9.180;2023-02-11T17:20:42;4.00;;;3.70;;
3975;SDS011;2002;48.812;9.180;2023-02-11T17:23:07;4.23;;;3.30;;
3975;SDS011;2002;48.812;9.180;2023-02-11T17:25:33;3.90;;;3.60;;
3975;SDS011;2002;48.812;9.180;2023-02-11T17:28:01;3.80;;;3.50;;
3975;SDS011;2002;48.812;9.180;2023-02-11T17:30:27;3.50;;;3.20;;
3975;SDS011;2002;48.812;9.180;2023-02-11T17:32:53;3.30;;;3.10;;
3975;SDS011;2002;48.812;9.180;2023-02-11T17:35:19;3.90;;;3.60;;
3975;SDS011;2002;48.812;9.180;2023-02-11T17:37:44;3.53;;;3.33;;
3975;SDS011;2002;48.812;9.180;2023-02-11T17:40:10;3.53;;;3.23;;
3975;SDS011;2002;48.812;9.180;2023-02-11T17:42:36;4.57;;;3.23;;
3975;SDS011;2002;48.812;9.180;2023-02-11T17:45:02;3.60;;;3.30;;
3975;SDS011;2002;48.812;9.180;2023-02-11T17:47:28;3.97;;;3.57;;
3975;SDS011;2002;48.812;9.180;2023-02-11T17:49:54;3.67;;;3.17;;
3975;SDS011;2002;48.812;9.180;2023-02-11T17:52:20;4.10;;;3.70;;
3975;SDS011;2002;48.812;9.180;2023-02-11T17:54:48;4.20;;;3.90;;
3975;SDS011;2002;48.812;9.180;2023-02-11T17:57:13;3.47;;;3.17;;
3975;SDS011;2002;48.812;9.180;2023-02-11T17:59:39;4.27;;;3.87;;
3975;SDS011;2002;48.812;9.180;2023-02-11T18:02:04;3.13;;;2.93;;
3975;SDS011;2002;48.812;9.180;2023-02-11T18:04:30;3.37;;;3.07;;
3975;SDS011;2002;48.812;9.180;2023-02-11T18:06:56;3.50;;;3.20;;
3975;SDS011;2002;48.812;9.180;2023-02-11T18:09:22;3.50;;;3.20;;
3975;SDS011;2002;48.812;9.180;2023-02-11T18:11:48;3.90;;;3.50;;